createdAt,value
2024-02-18T00:01:22.145Z,78.55
2024-02-18T00:03:52.381Z,78.47
2024-02-18T00:06:24.382Z,78.45
2024-02-18T00:08:53.303Z,77.63
2024-02-18T00:11:22.188Z,77.89
2024-02-18T00:13:50.536Z,78.04
2024-02-18T00:16:23.528Z,78.03
2024-02-18T00:18:53.659Z,78.03
2024-02-18T00:21:27.520Z,77.42
2024-02-18T00:24:01.642Z,76.78
2024-02-18T00:26:43.298Z,77.04
2024-02-18T00:29:19.171Z,77.78
2024-02-18T00:31:51.907Z,78.05
2024-02-18T00:34:23.874Z,77.57
2024-02-18T00:36:57.155Z,77.77
2024-02-18T00:39:27.915Z,76.68
2024-02-18T00:41:59.727Z,77.56
2024-02-18T00:44:30.583Z,79.23
2024-02-18T00:47:05.839Z,79.60
2024-02-18T00:49:37.948Z,78.11
2024-02-18T00:52:07.328Z,77.64
2024-02-18T00:54:39.384Z,76.93
2024-02-18T00:57:08.376Z,77.03
2024-02-18T00:59:40.757Z,76.06
2024-02-18T01:02:09.760Z,76.04
2024-02-18T01:04:40.114Z,76.80
2024-02-18T01:07:10.126Z,78.65
2024-02-18T01:09:39.608Z,79.75
2024-02-18T01:12:10.215Z,78.69
2024-02-18T01:14:44.699Z,77.90
2024-02-18T01:17:13.632Z,78.50
2024-02-18T01:19:47.096Z,78.01
2024-02-18T01:22:16.051Z,77.13
2024-02-18T01:24:45.377Z,76.73
2024-02-18T01:27:13.702Z,75.82
2024-02-18T01:29:45.782Z,76.26
2024-02-18T01:32:14.734Z,76.45
2024-02-18T01:34:50.700Z,76.57
2024-02-18T01:37:19.379Z,76.51
2024-02-18T01:39:48.548Z,76.15
2024-02-18T01:42:16.897Z,75.66
2024-02-18T01:44:54.268Z,75.63
2024-02-18T01:47:23.163Z,75.52
2024-02-18T01:49:56.704Z,75.13
2024-02-18T01:52:26.004Z,75.01
2024-02-18T01:54:55.883Z,74.96
2024-02-18T01:57:31.443Z,75.73
2024-02-18T02:00:03.917Z,76.62
2024-02-18T02:02:40.664Z,76.87
2024-02-18T02:05:14.641Z,76.42
2024-02-18T02:07:44.794Z,76.10
2024-02-18T02:10:14.154Z,76.04
2024-02-18T02:12:44.023Z,77.25
2024-02-18T02:15:13.394Z,76.27
2024-02-18T02:17:44.004Z,76.50
2024-02-18T02:20:14.311Z,77.01
2024-02-18T02:22:44.957Z,76.11
2024-02-18T02:25:15.607Z,74.26
2024-02-18T02:27:45.155Z,74.55
2024-02-18T02:30:15.737Z,74.60
2024-02-18T02:32:50.319Z,73.96
2024-02-18T02:35:19.459Z,74.09
2024-02-18T02:37:48.906Z,72.77
2024-02-18T02:40:18.267Z,72.43
2024-02-18T02:42:51.283Z,72.32
2024-02-18T02:45:21.011Z,73.32
2024-02-18T02:47:54.134Z,74.06
2024-02-18T02:50:23.106Z,73.48
2024-02-18T02:52:53.245Z,73.39
2024-02-18T02:55:22.010Z,72.48
2024-02-18T02:57:54.110Z,72.02
2024-02-18T03:00:24.880Z,71.06
2024-02-18T03:02:56.985Z,70.71
2024-02-18T03:05:26.306Z,70.12
2024-02-18T03:07:57.956Z,71.08
2024-02-18T03:10:26.637Z,70.85
2024-02-18T03:12:59.872Z,70.21
2024-02-18T03:15:30.885Z,69.37
2024-02-18T03:17:59.937Z,69.95
2024-02-18T03:20:28.545Z,70.18
2024-02-18T03:23:00.761Z,70.82
2024-02-18T03:25:32.979Z,71.42
2024-02-18T03:28:02.973Z,71.63
2024-02-18T03:30:33.362Z,72.23
2024-02-18T03:33:06.013Z,72.83
2024-02-18T03:35:34.971Z,72.54
2024-02-18T03:38:04.979Z,72.10
2024-02-18T03:40:33.434Z,71.75
2024-02-18T03:43:03.878Z,71.59
2024-02-18T03:45:34.689Z,71.22
2024-02-18T03:48:07.046Z,71.66
2024-02-18T03:50:35.770Z,71.55
2024-02-18T03:53:10.680Z,71.40
2024-02-18T03:55:39.306Z,70.70
2024-02-18T03:58:11.346Z,71.20
2024-02-18T04:00:41.591Z,71.40
2024-02-18T04:03:12.215Z,70.79
2024-02-18T04:05:40.552Z,70.89
2024-02-18T04:08:09.859Z,69.93
2024-02-18T04:10:40.860Z,69.98
2024-02-18T04:13:13.214Z,70.32
2024-02-18T04:15:43.914Z,70.63
2024-02-18T04:18:14.502Z,70.45
2024-02-18T04:20:43.866Z,70.75
2024-02-18T04:23:18.497Z,71.61
2024-02-18T04:25:47.425Z,72.71
2024-02-18T04:28:18.534Z,72.80
2024-02-18T04:30:48.826Z,74.61
2024-02-18T04:33:18.036Z,73.87
2024-02-18T04:35:46.698Z,74.46
2024-02-18T04:38:17.020Z,75.33
2024-02-18T04:40:45.825Z,75.43
2024-02-18T04:43:14.447Z,75.65
2024-02-18T04:45:47.565Z,75.27
2024-02-18T04:48:18.594Z,75.37
2024-02-18T04:50:51.996Z,76.23
2024-02-18T04:53:23.992Z,76.86
2024-02-18T04:55:52.676Z,77.59
2024-02-18T04:58:22.363Z,76.64
2024-02-18T05:00:52.085Z,75.67
2024-02-18T05:03:23.795Z,76.65
2024-02-18T05:05:55.486Z,75.90
2024-02-18T05:08:31.421Z,75.47
2024-02-18T05:10:59.804Z,75.25
2024-02-18T05:13:39.164Z,75.76
2024-02-18T05:16:16.799Z,74.47
2024-02-18T05:18:56.135Z,74.21
2024-02-18T05:21:25.260Z,74.72
2024-02-18T05:23:57.115Z,74.53
2024-02-18T05:26:27.201Z,75.95
2024-02-18T05:28:56.335Z,75.62
2024-02-18T05:31:25.727Z,74.61
2024-02-18T05:33:59.028Z,75.86
2024-02-18T05:36:27.860Z,76.33
2024-02-18T05:39:02.533Z,76.10
2024-02-18T05:41:31.482Z,76.77
2024-02-18T05:44:01.620Z,74.90
2024-02-18T05:46:28.953Z,75.17
2024-02-18T05:51:33.976Z,75.36
2024-02-18T05:54:03.362Z,76.26
2024-02-18T05:56:34.381Z,77.17
2024-02-18T05:59:07.675Z,77.31
2024-02-18T06:01:36.421Z,78.04
2024-02-18T06:04:09.745Z,78.19
2024-02-18T06:06:38.877Z,78.36
2024-02-18T06:09:09.384Z,77.88
2024-02-18T06:11:38.624Z,77.88
2024-02-18T06:14:10.249Z,78.72
2024-02-18T06:16:39.204Z,78.20
2024-02-18T06:19:15.671Z,77.93
2024-02-18T06:21:46.236Z,77.97
2024-02-18T06:24:15.696Z,76.72
2024-02-18T06:26:45.073Z,76.95
2024-02-18T06:29:14.744Z,77.56
2024-02-18T06:31:43.079Z,78.13
2024-02-18T06:34:20.642Z,77.69
2024-02-18T06:36:49.387Z,78.15
2024-02-18T06:39:20.423Z,77.41
2024-02-18T06:41:52.381Z,77.15
2024-02-18T06:44:23.357Z,75.78
2024-02-18T06:46:53.181Z,75.30
2024-02-18T06:49:23.110Z,74.96
2024-02-18T06:51:51.846Z,74.82
2024-02-18T06:54:23.637Z,74.12
2024-02-18T06:56:52.972Z,74.66
2024-02-18T06:59:27.825Z,73.26
2024-02-18T07:01:56.811Z,73.55
2024-02-18T07:04:28.039Z,74.12
2024-02-18T07:06:57.067Z,72.95
2024-02-18T07:09:31.045Z,73.52
2024-02-18T07:11:59.676Z,73.78
2024-02-18T07:14:29.972Z,74.73
2024-02-18T07:16:58.658Z,73.74
2024-02-18T07:19:30.816Z,73.54
2024-02-18T07:21:59.565Z,72.58
2024-02-18T07:24:29.146Z,72.81
2024-02-18T07:26:57.800Z,72.57
2024-02-18T07:29:26.392Z,71.52
2024-02-18T07:32:05.205Z,71.00
2024-02-18T07:34:35.165Z,71.72
2024-02-18T07:37:04.446Z,70.77
2024-02-18T07:39:35.147Z,70.48
2024-02-18T07:42:04.068Z,70.25
2024-02-18T07:44:33.500Z,70.15
2024-02-18T07:47:04.575Z,69.21
2024-02-18T07:49:39.978Z,68.92
2024-02-18T07:52:10.091Z,69.30
2024-02-18T07:54:39.580Z,68.89
2024-02-18T07:57:08.460Z,69.22
2024-02-18T07:59:37.465Z,67.94
2024-02-18T08:02:08.272Z,67.69
2024-02-18T08:04:41.488Z,67.56
2024-02-18T08:07:12.318Z,68.59
2024-02-18T08:09:43.873Z,66.67
2024-02-18T08:12:12.177Z,66.46
2024-02-18T08:14:47.847Z,66.96
2024-02-18T08:17:16.941Z,66.82
2024-02-18T08:19:45.815Z,67.37
2024-02-18T08:22:15.927Z,67.09
2024-02-18T08:24:45.946Z,66.81
2024-02-18T08:27:16.248Z,68.07
2024-02-18T08:29:46.644Z,67.40
2024-02-18T08:32:17.820Z,66.29
2024-02-18T08:34:54.689Z,65.64
2024-02-18T08:37:34.927Z,66.32
2024-02-18T08:40:03.687Z,66.29
2024-02-18T08:42:35.629Z,65.57
2024-02-18T08:45:04.384Z,64.95
2024-02-18T08:47:35.462Z,64.45
2024-02-18T08:50:04.018Z,64.11
2024-02-18T08:52:37.809Z,62.86
2024-02-18T08:55:06.890Z,62.05
2024-02-18T08:57:38.891Z,62.31
2024-02-18T09:00:09.341Z,60.98
2024-02-18T09:02:41.635Z,61.88
2024-02-18T09:05:10.303Z,61.20
2024-02-18T09:07:43.066Z,60.03
2024-02-18T09:10:11.717Z,59.26
2024-02-18T09:12:42.134Z,58.38
2024-02-18T09:15:11.825Z,58.14
2024-02-18T09:17:47.578Z,57.65
2024-02-18T09:20:16.669Z,56.21
2024-02-18T09:22:48.370Z,56.84
2024-02-18T09:25:17.044Z,55.58
2024-02-18T09:27:46.750Z,55.50
2024-02-18T09:30:16.231Z,54.38
2024-02-18T09:32:47.438Z,52.45
2024-02-18T09:35:16.532Z,54.14
2024-02-18T09:37:49.352Z,53.76
2024-02-18T09:40:20.242Z,54.13
2024-02-18T09:42:50.538Z,54.07
2024-02-18T09:45:19.484Z,52.70
2024-02-18T09:47:55.017Z,51.50
2024-02-18T09:50:23.765Z,48.90
2024-02-18T09:52:57.477Z,49.42
2024-02-18T09:55:28.614Z,47.39
2024-02-18T09:58:00.023Z,44.28
2024-02-18T10:00:30.172Z,41.58
2024-02-18T10:03:04.681Z,43.33
2024-02-18T10:05:42.626Z,41.42
2024-02-18T10:08:11.467Z,41.90
2024-02-18T10:10:41.490Z,43.17
2024-02-18T10:13:10.222Z,42.37
2024-02-18T10:15:39.854Z,43.34
2024-02-18T10:18:11.597Z,41.16
2024-02-18T10:20:43.914Z,41.89
2024-02-18T10:23:12.896Z,41.48
2024-02-18T10:25:45.515Z,41.38
2024-02-18T10:28:14.424Z,42.23
2024-02-18T10:30:44.256Z,42.38
2024-02-18T10:33:13.044Z,46.49
2024-02-18T10:35:45.078Z,43.77
2024-02-18T10:38:15.623Z,48.51
2024-02-18T10:40:52.226Z,49.02
2024-02-18T10:43:22.532Z,50.31
2024-02-18T10:45:55.106Z,50.30
2024-02-18T10:48:24.340Z,47.74
2024-02-18T10:50:56.340Z,48.28
2024-02-18T10:53:29.505Z,49.34
2024-02-18T10:56:04.121Z,48.90
2024-02-18T10:58:36.297Z,48.00
2024-02-18T11:01:05.920Z,45.38
2024-02-18T11:03:36.399Z,44.26
2024-02-18T11:06:05.238Z,42.45
2024-02-18T11:08:34.204Z,43.12
2024-02-18T11:11:06.097Z,46.31
2024-02-18T11:13:39.444Z,45.44
2024-02-18T11:16:10.770Z,47.01
2024-02-18T11:18:40.271Z,46.61
2024-02-18T11:21:08.975Z,43.80
2024-02-18T11:23:37.890Z,43.50
2024-02-18T11:26:10.756Z,43.88
2024-02-18T11:28:49.070Z,43.65
2024-02-18T11:31:25.420Z,43.26
2024-02-18T11:33:54.317Z,45.10
2024-02-18T11:36:25.739Z,44.88
2024-02-18T11:38:57.672Z,43.65
2024-02-18T11:41:29.765Z,44.12
2024-02-18T11:43:59.127Z,45.06
2024-02-18T11:46:31.079Z,43.67
2024-02-18T11:49:00.332Z,43.51
2024-02-18T11:51:35.067Z,43.47
2024-02-18T11:54:07.462Z,43.40
2024-02-18T11:56:39.669Z,43.57
2024-02-18T11:59:12.505Z,43.51
2024-02-18T12:01:41.533Z,44.10
2024-02-18T12:04:15.159Z,43.64
2024-02-18T12:06:43.578Z,42.96
2024-02-18T12:09:27.512Z,43.06
2024-02-18T12:12:00.702Z,42.95
2024-02-18T12:14:29.616Z,42.67
2024-02-18T12:17:02.210Z,42.62
2024-02-18T12:19:31.605Z,42.92
2024-02-18T12:22:10.356Z,42.50
2024-02-18T12:24:43.540Z,42.80
2024-02-18T12:27:13.265Z,42.15
2024-02-18T12:29:46.062Z,42.78
2024-02-18T12:32:14.737Z,41.95
2024-02-18T12:34:51.930Z,43.13
2024-02-18T12:37:27.702Z,41.70
2024-02-18T12:40:07.596Z,42.91
2024-02-18T12:42:52.089Z,42.96
2024-02-18T12:45:42.736Z,41.68
2024-02-18T12:48:16.925Z,41.67
2024-02-18T12:50:48.433Z,41.84
2024-02-18T12:53:21.488Z,41.08
2024-02-18T12:55:50.405Z,40.08
2024-02-18T12:58:25.404Z,39.90
2024-02-18T13:00:55.768Z,39.78
2024-02-18T13:03:25.614Z,39.97
2024-02-18T13:05:54.657Z,41.47
2024-02-18T13:08:25.356Z,47.49
2024-02-18T13:10:53.977Z,44.86
2024-02-18T13:13:26.830Z,44.90
2024-02-18T13:15:56.888Z,46.28
2024-02-18T13:18:28.099Z,46.38
2024-02-18T13:20:57.459Z,45.05
2024-02-18T13:23:31.955Z,44.61
2024-02-18T13:26:01.146Z,39.38
2024-02-18T13:28:30.648Z,43.52
2024-02-18T13:31:01.709Z,45.28
2024-02-18T13:33:33.012Z,43.66
2024-02-18T13:36:02.322Z,44.01
2024-02-18T13:38:33.904Z,46.05
2024-02-18T13:41:03.659Z,45.89
2024-02-18T13:43:37.816Z,42.18
2024-02-18T13:46:08.514Z,40.83
2024-02-18T13:48:43.288Z,40.37
2024-02-18T13:51:15.503Z,40.21
2024-02-18T13:53:50.339Z,41.80
2024-02-18T13:56:20.203Z,45.63
2024-02-18T13:58:51.069Z,44.31
2024-02-18T14:01:23.920Z,40.77
2024-02-18T14:03:52.881Z,39.02
2024-02-18T14:06:29.295Z,39.47
2024-02-18T14:09:12.370Z,39.67
2024-02-18T14:14:17.557Z,40.98
2024-02-18T14:16:52.973Z,42.20
2024-02-18T14:19:22.097Z,40.84
2024-02-18T14:21:52.183Z,40.71
2024-02-18T14:24:23.851Z,40.50
2024-02-18T14:26:59.230Z,40.66
2024-02-18T14:29:28.677Z,42.11
2024-02-18T14:32:02.638Z,41.49
2024-02-18T14:34:35.676Z,40.82
2024-02-18T14:37:05.684Z,41.68
2024-02-18T14:39:35.762Z,41.49
2024-02-18T14:42:04.478Z,41.33
2024-02-18T14:44:34.393Z,41.21
2024-02-18T14:47:05.144Z,41.66
2024-02-18T14:49:41.754Z,41.30
2024-02-18T14:54:49.593Z,41.53
2024-02-18T14:57:20.029Z,41.01
2024-02-18T14:59:51.251Z,40.89
2024-02-18T15:02:23.734Z,41.41
2024-02-18T15:04:53.457Z,41.12
2024-02-18T15:07:23.637Z,41.27
2024-02-18T15:09:54.882Z,41.02
2024-02-18T15:12:27.908Z,40.96
2024-02-18T15:14:56.554Z,40.55
2024-02-18T15:17:31.073Z,41.97
2024-02-18T15:20:03.210Z,41.62
2024-02-18T15:22:37.877Z,40.21
2024-02-18T15:25:12.705Z,41.14
2024-02-18T15:27:41.599Z,41.24
2024-02-18T15:30:14.624Z,41.41
2024-02-18T15:32:45.755Z,42.34
2024-02-18T15:35:18.298Z,43.09
2024-02-18T15:37:47.091Z,41.72
2024-02-18T15:40:18.498Z,41.50
2024-02-18T15:42:47.233Z,40.14
2024-02-18T15:45:18.246Z,40.51
2024-02-18T15:47:48.364Z,40.66
2024-02-18T15:50:20.313Z,40.36
2024-02-18T15:52:48.998Z,41.83
2024-02-18T15:55:22.946Z,42.30
2024-02-18T15:57:51.727Z,42.39
2024-02-18T16:00:24.424Z,43.41
2024-02-18T16:02:54.906Z,44.08
2024-02-18T16:05:26.541Z,44.76
2024-02-18T16:07:57.549Z,45.07
2024-02-18T16:10:26.680Z,45.86
2024-02-18T16:12:54.976Z,46.63
2024-02-18T16:15:26.581Z,48.35
2024-02-18T16:17:56.314Z,49.51
2024-02-18T16:20:25.814Z,50.20
2024-02-18T16:22:54.910Z,50.92
2024-02-18T16:27:58.247Z,51.99
2024-02-18T16:30:30.659Z,53.28
2024-02-18T16:33:01.131Z,54.27
2024-02-18T16:35:30.366Z,55.57
2024-02-18T16:37:59.322Z,55.58
2024-02-18T16:40:27.953Z,55.58
2024-02-18T16:42:57.280Z,55.45
2024-02-18T16:45:26.201Z,55.69
2024-02-18T16:47:56.051Z,55.79
2024-02-18T16:50:26.551Z,56.00
2024-02-18T16:52:55.971Z,56.36
2024-02-18T16:55:24.989Z,56.82
2024-02-18T16:57:58.469Z,57.66
2024-02-18T17:00:28.667Z,57.71
2024-02-18T17:02:59.578Z,57.41
2024-02-18T17:05:30.029Z,58.86
2024-02-18T17:07:59.318Z,58.77
2024-02-18T17:10:28.503Z,59.38
2024-02-18T17:13:00.216Z,59.91
2024-02-18T17:15:29.543Z,60.68
2024-02-18T17:18:04.127Z,60.40
2024-02-18T17:20:34.797Z,60.61
2024-02-18T17:23:05.222Z,60.59
2024-02-18T17:25:34.232Z,60.20
2024-02-18T17:28:06.075Z,60.40
2024-02-18T17:30:34.969Z,60.81
2024-02-18T17:33:04.673Z,61.70
2024-02-18T17:35:34.893Z,61.49
2024-02-18T17:38:04.927Z,60.79
2024-02-18T17:40:34.154Z,60.17
2024-02-18T17:43:08.804Z,60.47
2024-02-18T17:45:37.768Z,60.93
2024-02-18T17:48:14.819Z,59.73
2024-02-18T17:50:45.130Z,59.82
2024-02-18T17:53:18.848Z,60.24
2024-02-18T17:55:49.959Z,60.11
2024-02-18T17:58:19.935Z,62.07
2024-02-18T18:00:50.933Z,62.01
2024-02-18T18:03:24.341Z,61.49
2024-02-18T18:05:57.012Z,60.91
2024-02-18T18:08:28.150Z,60.63
2024-02-18T18:10:58.467Z,60.47
2024-02-18T18:13:27.395Z,59.79
2024-02-18T18:16:00.208Z,60.55
2024-02-18T18:18:29.904Z,59.94
2024-02-18T18:21:02.766Z,60.30
2024-02-18T18:23:31.712Z,60.96
2024-02-18T18:26:05.587Z,61.17
2024-02-18T18:28:34.851Z,60.82
2024-02-18T18:31:05.454Z,60.73
2024-02-18T18:33:34.444Z,60.32
2024-02-18T18:36:08.980Z,60.32
2024-02-18T18:38:37.601Z,60.18
2024-02-18T18:41:07.764Z,60.00
2024-02-18T18:43:36.231Z,59.91
2024-02-18T18:46:05.589Z,60.15
2024-02-18T18:48:38.521Z,60.04
2024-02-18T18:51:12.682Z,59.87
2024-02-18T18:53:41.770Z,60.23
2024-02-18T18:56:13.691Z,60.36
2024-02-18T18:58:44.460Z,60.68
2024-02-18T19:01:14.436Z,60.33
2024-02-18T19:03:43.170Z,60.53
2024-02-18T19:06:21.147Z,60.50
2024-02-18T19:08:50.222Z,60.40
2024-02-18T19:11:27.483Z,60.32
2024-02-18T19:13:59.951Z,60.59
2024-02-18T19:16:44.198Z,60.75
2024-02-18T19:21:51.498Z,60.75
2024-02-18T19:24:26.919Z,60.93
2024-02-18T19:26:56.346Z,61.24
2024-02-18T19:29:25.269Z,61.24
2024-02-18T19:31:53.595Z,61.25
2024-02-18T19:34:29.062Z,61.49
2024-02-18T19:36:59.147Z,62.16
2024-02-18T19:39:28.577Z,61.96
2024-02-18T19:41:57.949Z,61.80
2024-02-18T19:44:26.958Z,61.71
2024-02-18T19:46:56.879Z,61.45
2024-02-18T19:49:32.400Z,61.88
2024-02-18T19:52:02.820Z,61.83
2024-02-18T19:54:35.159Z,62.01
2024-02-18T19:57:03.944Z,61.87
2024-02-18T19:59:35.512Z,61.72
2024-02-18T20:02:07.228Z,61.94
2024-02-18T20:04:37.945Z,62.18
2024-02-18T20:07:08.475Z,62.30
2024-02-18T20:09:38.375Z,62.38
2024-02-18T20:12:10.632Z,62.61
2024-02-18T20:14:49.415Z,62.85
2024-02-18T20:17:22.002Z,62.78
2024-02-18T20:19:51.756Z,62.98
2024-02-18T20:22:25.919Z,62.92
2024-02-18T20:24:56.654Z,63.41
2024-02-18T20:27:31.865Z,62.83
2024-02-18T20:30:01.190Z,63.22
2024-02-18T20:32:32.720Z,63.60
2024-02-18T20:35:06.376Z,63.10
2024-02-18T20:37:36.617Z,63.00
2024-02-18T20:40:18.469Z,63.20
2024-02-18T20:42:51.901Z,63.06
2024-02-18T20:45:27.599Z,63.00
2024-02-18T20:47:58.309Z,63.05
2024-02-18T20:50:27.942Z,63.23
2024-02-18T20:53:18.509Z,63.12
2024-02-18T20:55:47.091Z,63.14
2024-02-18T20:58:20.881Z,62.94
2024-02-18T21:00:50.605Z,62.81
2024-02-18T21:03:21.012Z,63.03
2024-02-18T21:05:49.656Z,63.08
2024-02-18T21:08:22.684Z,63.23
2024-02-18T21:10:52.614Z,62.83
2024-02-18T21:13:24.317Z,62.91
2024-02-18T21:15:53.013Z,63.42
2024-02-18T21:18:25.314Z,63.72
2024-02-18T21:20:53.938Z,63.72
2024-02-18T21:23:26.734Z,63.72
2024-02-18T21:25:55.462Z,63.33
2024-02-18T21:28:25.792Z,63.75
2024-02-18T21:30:55.250Z,63.61
2024-02-18T21:33:26.845Z,64.42
2024-02-18T21:35:55.818Z,64.08
2024-02-18T21:38:30.814Z,63.87
2024-02-18T21:41:01.089Z,64.27
2024-02-18T21:43:31.069Z,64.58
2024-02-18T21:46:01.670Z,63.98
2024-02-18T21:48:31.409Z,63.71
2024-02-18T21:51:00.371Z,64.63
2024-02-18T21:53:35.687Z,64.44
2024-02-18T21:56:10.719Z,65.06
2024-02-18T21:58:43.444Z,64.62
2024-02-18T22:01:12.471Z,64.20
2024-02-18T22:03:49.099Z,64.83
2024-02-18T22:06:18.595Z,64.00
2024-02-18T22:08:47.555Z,64.83
2024-02-18T22:11:21.298Z,64.55
2024-02-18T22:13:50.246Z,64.72
2024-02-18T22:16:22.514Z,65.53
2024-02-18T22:18:52.342Z,64.92
2024-02-18T22:21:25.670Z,65.04
2024-02-18T22:23:55.226Z,64.70
2024-02-18T22:26:24.933Z,64.83
2024-02-18T22:28:53.542Z,65.69
2024-02-18T22:31:28.047Z,65.78
2024-02-18T22:33:56.394Z,65.75
2024-02-18T22:36:28.548Z,65.36
2024-02-18T22:38:57.507Z,65.15
2024-02-18T22:41:31.668Z,65.70
2024-02-18T22:43:59.961Z,64.57
2024-02-18T22:46:28.986Z,64.80
2024-02-18T22:48:57.754Z,64.64
2024-02-18T22:51:29.253Z,64.98
2024-02-18T22:53:58.523Z,65.42
2024-02-18T22:56:32.488Z,64.91
2024-02-18T22:59:02.748Z,65.16
2024-02-18T23:01:34.883Z,65.78
2024-02-18T23:04:03.650Z,65.40
2024-02-18T23:06:36.183Z,65.37
2024-02-18T23:09:05.122Z,66.38
2024-02-18T23:11:40.202Z,66.07
2024-02-18T23:14:11.040Z,66.78
2024-02-18T23:16:39.944Z,66.89
2024-02-18T23:19:12.171Z,66.93
2024-02-18T23:21:52.573Z,67.57
2024-02-18T23:24:23.509Z,66.40
2024-02-18T23:26:52.171Z,66.68
2024-02-18T23:29:22.474Z,66.30
2024-02-18T23:31:51.066Z,66.24
2024-02-18T23:34:20.661Z,65.67
2024-02-18T23:36:52.384Z,66.02
2024-02-18T23:39:22.705Z,66.56
2024-02-18T23:41:54.834Z,66.31
2024-02-18T23:44:28.225Z,66.07
2024-02-18T23:46:56.855Z,66.33
2024-02-18T23:49:31.959Z,66.54
2024-02-18T23:52:00.765Z,66.33
2024-02-18T23:54:30.000Z,66.54
2024-02-18T23:56:58.343Z,65.99
2024-02-18T23:59:36.239Z,67.15
